createdAt,value
2018-12-22T00:00:21.203Z,968.2
2018-12-22T00:01:24.788Z,968.2
2018-12-22T00:02:26.080Z,968.3
2018-12-22T00:03:28.812Z,968.3
2018-12-22T00:04:30.107Z,968.3
2018-12-22T00:05:31.457Z,968.2
2018-12-22T00:06:32.741Z,968.2
2018-12-22T00:07:33.996Z,968.2
2018-12-22T00:08:35.398Z,968.2
2018-12-22T00:09:36.711Z,968.1
2018-12-22T00:10:38.310Z,968.1
2018-12-22T00:11:39.621Z,968.2
2018-12-22T00:12:41.055Z,968
2018-12-22T00:13:42.342Z,968
2018-12-22T00:14:43.659Z,968.2
2018-12-22T00:15:45.008Z,968.2
2018-12-22T00:16:46.315Z,968.1
2018-12-22T00:17:47.635Z,968.1
2018-12-22T00:18:48.931Z,968.1
2018-12-22T00:19:52.325Z,968.2
2018-12-22T00:20:55.835Z,968.2
2018-12-22T00:21:57.192Z,968.2
2018-12-22T00:22:58.518Z,968.1
2018-12-22T00:23:59.793Z,968.2
2018-12-22T00:25:02.036Z,968.3
2018-12-22T00:26:03.782Z,968.3
2018-12-22T00:27:05.081Z,968.3
2018-12-22T00:28:06.372Z,968.3
2018-12-22T00:29:07.681Z,968.3
2018-12-22T00:30:08.970Z,968.3
2018-12-22T00:31:10.294Z,968.4
2018-12-22T00:32:11.914Z,968.5
2018-12-22T00:33:13.282Z,968.4
2018-12-22T00:34:16.283Z,968.5
2018-12-22T00:35:17.892Z,968.4
2018-12-22T00:36:19.402Z,968.3
2018-12-22T00:37:20.736Z,968.5
2018-12-22T00:38:22.016Z,968.5
2018-12-22T00:39:23.294Z,968.4
2018-12-22T00:40:24.577Z,968.3
2018-12-22T00:41:25.903Z,968.5
2018-12-22T00:42:27.209Z,968.5
2018-12-22T00:43:30.033Z,968.6
2018-12-22T00:44:31.333Z,968.5
2018-12-22T00:45:33.722Z,968.6
2018-12-22T00:46:35.106Z,968.7
2018-12-22T00:47:36.410Z,968.7
2018-12-22T00:48:37.718Z,968.8
2018-12-22T00:49:38.997Z,968.8
2018-12-22T00:50:40.280Z,968.8
2018-12-22T00:51:41.648Z,968.8
2018-12-22T00:52:42.910Z,968.9
2018-12-22T00:53:46.949Z,969
2018-12-22T00:54:48.238Z,969
2018-12-22T00:55:49.506Z,969
2018-12-22T00:56:50.794Z,968.9
2018-12-22T00:57:52.093Z,969
2018-12-22T00:58:53.773Z,968.8
2018-12-22T00:59:55.036Z,968.9
2018-12-22T01:00:56.332Z,969
2018-12-22T01:01:58.125Z,969
2018-12-22T01:02:59.413Z,969
2018-12-22T01:04:00.701Z,968.9
2018-12-22T01:05:02.008Z,969
2018-12-22T01:06:03.269Z,969
2018-12-22T01:07:04.580Z,969.1
2018-12-22T01:08:08.399Z,969.1
2018-12-22T01:09:09.711Z,969.1
2018-12-22T01:10:11.237Z,969
2018-12-22T01:11:20.344Z,969.1
2018-12-22T01:12:23.988Z,969
2018-12-22T01:13:27.408Z,969.1
2018-12-22T01:14:28.711Z,969.2
2018-12-22T01:15:29.992Z,969.3
2018-12-22T01:16:31.357Z,969.2
2018-12-22T01:17:32.709Z,969.2
2018-12-22T01:18:34.461Z,969.3
2018-12-22T01:19:36.001Z,969.3
2018-12-22T01:20:37.684Z,969.2
2018-12-22T01:21:38.958Z,969.3
2018-12-22T01:22:40.257Z,969.4
2018-12-22T01:23:41.581Z,969.3
2018-12-22T01:24:42.878Z,969.3
2018-12-22T01:25:44.318Z,969.4
2018-12-22T01:26:45.597Z,969.3
2018-12-22T01:27:46.926Z,969.4
2018-12-22T01:28:50.529Z,969.5
2018-12-22T01:29:51.813Z,969.5
2018-12-22T01:30:53.072Z,969.4
2018-12-22T01:31:54.370Z,969.6
2018-12-22T01:32:55.678Z,969.6
2018-12-22T01:33:57.066Z,969.5
2018-12-22T01:34:58.368Z,969.5
2018-12-22T01:35:59.657Z,969.6
2018-12-22T01:37:00.945Z,969.6
2018-12-22T01:38:02.269Z,969.7
2018-12-22T01:39:03.545Z,969.6
2018-12-22T01:40:04.797Z,969.5
2018-12-22T01:41:06.085Z,969.5
2018-12-22T01:42:07.404Z,969.6
2018-12-22T01:43:09.073Z,969.6
2018-12-22T01:44:10.668Z,969.6
2018-12-22T01:45:14.337Z,969.5
2018-12-22T01:46:15.617Z,969.6
2018-12-22T01:47:18.203Z,969.6
2018-12-22T01:48:19.525Z,969.7
2018-12-22T01:49:23.136Z,969.7
2018-12-22T01:50:24.402Z,969.7
2018-12-22T01:51:28.160Z,969.6
2018-12-22T01:52:29.468Z,969.7
2018-12-22T01:53:30.825Z,969.7
2018-12-22T01:54:32.104Z,969.7
2018-12-22T01:55:33.433Z,969.5
2018-12-22T01:56:34.921Z,969.7
2018-12-22T01:57:36.234Z,969.8
2018-12-22T01:58:37.551Z,969.7
2018-12-22T01:59:38.886Z,969.7
2018-12-22T02:00:40.166Z,969.7
2018-12-22T02:01:41.428Z,969.7
2018-12-22T02:02:42.706Z,969.6
2018-12-22T02:03:44.068Z,969.7
2018-12-22T02:04:45.362Z,969.8
2018-12-22T02:05:46.644Z,969.7
2018-12-22T02:06:47.923Z,969.7
2018-12-22T02:07:49.317Z,969.7
2018-12-22T02:08:50.623Z,969.7
2018-12-22T02:09:52.005Z,969.6
2018-12-22T02:10:53.296Z,969.8
2018-12-22T02:11:54.572Z,969.7
2018-12-22T02:12:55.904Z,969.7
2018-12-22T02:13:57.241Z,969.7
2018-12-22T02:14:58.520Z,969.8
2018-12-22T02:15:59.924Z,969.7
2018-12-22T02:17:01.237Z,969.7
2018-12-22T02:18:02.603Z,969.7
2018-12-22T02:19:04.048Z,969.7
2018-12-22T02:20:05.380Z,969.8
2018-12-22T02:21:06.711Z,969.8
2018-12-22T02:22:08.006Z,969.8
2018-12-22T02:23:09.273Z,969.7
2018-12-22T02:24:10.592Z,969.6
2018-12-22T02:25:11.965Z,969.7
2018-12-22T02:26:13.612Z,969.7
2018-12-22T02:27:14.934Z,969.7
2018-12-22T02:28:16.332Z,969.7
2018-12-22T02:29:17.636Z,969.6
2018-12-22T02:30:18.939Z,969.5
2018-12-22T02:31:20.225Z,969.7
2018-12-22T02:32:21.517Z,969.6
2018-12-22T02:33:22.802Z,969.6
2018-12-22T02:34:24.115Z,969.6
2018-12-22T02:35:26.337Z,969.5
2018-12-22T02:36:27.636Z,969.6
2018-12-22T02:37:28.914Z,969.7
2018-12-22T02:38:30.290Z,969.6
2018-12-22T02:39:31.881Z,969.6
2018-12-22T02:40:33.178Z,969.7
2018-12-22T02:41:34.501Z,969.6
2018-12-22T02:42:35.768Z,969.6
2018-12-22T02:43:37.040Z,969.6
2018-12-22T02:44:38.348Z,969.6
2018-12-22T02:45:39.768Z,969.6
2018-12-22T02:46:41.028Z,969.7
2018-12-22T02:47:42.325Z,969.7
2018-12-22T02:48:43.620Z,969.6
2018-12-22T02:49:44.957Z,969.6
2018-12-22T02:50:46.416Z,969.5
2018-12-22T02:51:47.693Z,969.6
2018-12-22T02:52:48.990Z,969.7
2018-12-22T02:53:50.317Z,969.6
2018-12-22T02:54:51.645Z,969.7
2018-12-22T02:55:52.926Z,969.7
2018-12-22T02:56:54.401Z,969.7
2018-12-22T02:57:55.700Z,969.7
2018-12-22T02:59:06.594Z,969.7
2018-12-22T03:00:08.581Z,969.7
2018-12-22T03:01:09.900Z,969.7
2018-12-22T03:02:11.189Z,969.7
2018-12-22T03:03:12.482Z,969.6
2018-12-22T03:04:13.765Z,969.5
2018-12-22T03:05:15.092Z,969.5
2018-12-22T03:06:16.378Z,969.5
2018-12-22T03:07:17.727Z,969.7
2018-12-22T03:08:19.020Z,969.5
2018-12-22T03:09:20.313Z,969.6
2018-12-22T03:10:21.645Z,969.6
2018-12-22T03:11:22.921Z,969.5
2018-12-22T03:12:24.186Z,969.5
2018-12-22T03:13:25.466Z,969.5
2018-12-22T03:14:26.756Z,969.6
2018-12-22T03:15:28.448Z,969.5
2018-12-22T03:16:29.724Z,969.5
2018-12-22T03:20:31.053Z,969.5
2018-12-22T03:21:32.341Z,969.6
2018-12-22T03:22:33.618Z,969.5
2018-12-22T03:23:34.882Z,969.6
2018-12-22T03:24:36.149Z,969.5
2018-12-22T03:25:37.481Z,969.6
2018-12-22T03:26:41.326Z,969.6
2018-12-22T03:27:42.609Z,969.5
2018-12-22T03:28:43.877Z,969.5
2018-12-22T03:29:45.602Z,969.5
2018-12-22T03:30:46.942Z,969.6
2018-12-22T03:31:48.233Z,969.6
2018-12-22T03:32:49.511Z,969.6
2018-12-22T03:33:50.775Z,969.6
2018-12-22T03:34:52.052Z,969.6
2018-12-22T03:35:53.387Z,969.6
2018-12-22T03:36:54.681Z,969.6
2018-12-22T03:37:56.222Z,969.6
2018-12-22T03:38:57.513Z,969.6
2018-12-22T03:39:58.776Z,969.5
2018-12-22T03:41:00.363Z,969.5
2018-12-22T03:42:03.552Z,969.4
2018-12-22T03:43:04.823Z,969.4
2018-12-22T03:44:06.100Z,969.5
2018-12-22T03:45:07.376Z,969.4
2018-12-22T03:46:08.701Z,969.5
2018-12-22T03:47:09.990Z,969.5
2018-12-22T03:48:11.261Z,969.5
2018-12-22T03:49:12.540Z,969.4
2018-12-22T03:50:13.820Z,969.4
2018-12-22T03:51:15.356Z,969.5
2018-12-22T03:52:16.649Z,969.5
2018-12-22T03:53:18.281Z,969.5
2018-12-22T03:54:19.595Z,969.5
2018-12-22T03:55:20.911Z,969.7
2018-12-22T03:56:22.255Z,969.6
2018-12-22T03:57:23.882Z,969.6
2018-12-22T03:58:25.161Z,969.6
2018-12-22T03:59:26.489Z,969.7
2018-12-22T04:00:27.803Z,969.6
2018-12-22T04:01:29.104Z,969.7
2018-12-22T04:02:30.385Z,969.5
2018-12-22T04:03:31.665Z,969.6
2018-12-22T04:04:32.932Z,969.6
2018-12-22T04:05:34.212Z,969.6
2018-12-22T04:06:35.524Z,969.6
2018-12-22T04:07:36.807Z,969.6
2018-12-22T04:08:44.182Z,969.6
2018-12-22T04:09:45.457Z,969.6
2018-12-22T04:10:46.730Z,969.5
2018-12-22T04:11:48.072Z,969.6
2018-12-22T04:12:49.364Z,969.5
2018-12-22T04:13:50.649Z,969.7
2018-12-22T04:14:52.424Z,969.6
2018-12-22T04:15:53.713Z,969.6
2018-12-22T04:16:55.018Z,969.6
2018-12-22T04:17:56.321Z,969.6
2018-12-22T04:18:57.615Z,969.5
2018-12-22T04:19:58.901Z,969.6
2018-12-22T04:21:00.176Z,969.4
2018-12-22T04:22:01.481Z,969.4
2018-12-22T04:23:02.767Z,969.4
2018-12-22T04:24:04.041Z,969.5
2018-12-22T04:25:05.317Z,969.5
2018-12-22T04:26:06.619Z,969.4
2018-12-22T04:27:07.927Z,969.5
2018-12-22T04:28:09.248Z,969.5
2018-12-22T04:29:10.517Z,969.5
2018-12-22T04:30:11.835Z,969.5
2018-12-22T04:31:13.255Z,969.5
2018-12-22T04:32:14.646Z,969.5
2018-12-22T04:33:15.982Z,969.4
2018-12-22T04:34:17.261Z,969.5
2018-12-22T04:35:18.536Z,969.5
2018-12-22T04:36:19.803Z,969.5
2018-12-22T04:37:21.141Z,969.5
2018-12-22T04:38:22.841Z,969.5
2018-12-22T04:39:24.132Z,969.5
2018-12-22T04:40:25.422Z,969.5
2018-12-22T04:41:26.700Z,969.4
2018-12-22T04:42:28.003Z,969.5
2018-12-22T04:43:29.380Z,969.4
2018-12-22T04:44:30.663Z,969.5
2018-12-22T04:45:31.935Z,969.4
2018-12-22T04:46:33.188Z,969.4
2018-12-22T04:47:34.537Z,969.4
2018-12-22T04:48:35.804Z,969.4
2018-12-22T04:49:37.161Z,969.3
2018-12-22T04:50:38.431Z,969.3
2018-12-22T04:51:39.708Z,969.3
2018-12-22T04:52:41.088Z,969.4
2018-12-22T04:53:42.359Z,969.4
2018-12-22T04:54:43.660Z,969.4
2018-12-22T04:55:44.926Z,969.4
2018-12-22T04:56:46.191Z,969.4
2018-12-22T04:57:47.505Z,969.3
2018-12-22T04:58:48.763Z,969.4
2018-12-22T04:59:50.040Z,969.4
2018-12-22T05:00:51.321Z,969.3
2018-12-22T05:01:52.588Z,969.3
2018-12-22T05:02:53.904Z,969.2
2018-12-22T05:03:55.293Z,969.2
2018-12-22T05:04:56.620Z,969.3
2018-12-22T05:05:57.925Z,969.4
2018-12-22T05:06:59.201Z,969.4
2018-12-22T05:08:01.010Z,969.4
2018-12-22T05:09:02.283Z,969.3
2018-12-22T05:10:05.902Z,969.3
2018-12-22T05:11:10.180Z,969.3
2018-12-22T05:12:14.124Z,969.2
2018-12-22T05:13:15.465Z,969.1
2018-12-22T05:14:16.780Z,969.2
2018-12-22T05:15:18.061Z,969.2
2018-12-22T05:16:19.436Z,969.2
2018-12-22T05:17:20.705Z,969.2
2018-12-22T05:18:22.029Z,969.3
2018-12-22T05:19:23.302Z,969.2
2018-12-22T05:20:24.585Z,969.2
2018-12-22T05:21:25.868Z,969.3
2018-12-22T05:22:27.178Z,969.3
2018-12-22T05:23:28.486Z,969.2
2018-12-22T05:24:29.788Z,969.3
2018-12-22T05:25:31.062Z,969.3
2018-12-22T05:26:32.347Z,969.3
2018-12-22T05:27:33.748Z,969.2
2018-12-22T05:28:35.068Z,969.3
2018-12-22T05:29:36.326Z,969.2
2018-12-22T05:30:37.611Z,969.3
2018-12-22T05:31:41.390Z,969.1
2018-12-22T05:32:42.676Z,969.1
2018-12-22T05:33:45.774Z,969.1
2018-12-22T05:34:50.368Z,969
2018-12-22T05:35:51.676Z,969.1
2018-12-22T05:36:53.353Z,969.1
2018-12-22T05:37:54.642Z,969.1
2018-12-22T05:38:55.971Z,969.1
2018-12-22T05:39:57.276Z,969
2018-12-22T05:40:58.545Z,969.1
2018-12-22T05:41:59.836Z,969.1
2018-12-22T05:43:01.148Z,969.2
2018-12-22T05:44:02.456Z,969.2
2018-12-22T05:45:03.752Z,969.1
2018-12-22T05:46:05.056Z,969.1
2018-12-22T05:47:06.333Z,969.1
2018-12-22T05:48:07.592Z,969.1
2018-12-22T05:49:08.995Z,969.1
2018-12-22T05:50:10.256Z,969.1
2018-12-22T05:51:11.560Z,969.1
2018-12-22T05:52:12.842Z,969
2018-12-22T05:53:14.110Z,969
2018-12-22T05:54:15.460Z,969
2018-12-22T05:55:16.755Z,969.1
2018-12-22T05:56:18.034Z,969.1
2018-12-22T05:57:19.309Z,969.1
2018-12-22T05:58:20.599Z,969.1
2018-12-22T05:59:22.394Z,969
2018-12-22T06:00:23.676Z,969
2018-12-22T06:01:24.973Z,969
2018-12-22T06:02:26.269Z,969
2018-12-22T06:03:27.563Z,969
2018-12-22T06:04:28.883Z,969
2018-12-22T06:05:30.152Z,969
2018-12-22T06:06:31.445Z,968.9
2018-12-22T06:07:32.731Z,968.9
2018-12-22T06:08:34.003Z,968.9
2018-12-22T06:09:35.359Z,968.9
2018-12-22T06:10:36.657Z,968.9
2018-12-22T06:11:38.242Z,968.8
2018-12-22T06:12:40.386Z,968.8
2018-12-22T06:13:41.673Z,968.9
2018-12-22T06:14:42.968Z,968.7
2018-12-22T06:15:44.254Z,968.8
2018-12-22T06:16:45.512Z,968.8
2018-12-22T06:17:46.962Z,968.8
2018-12-22T06:18:51.260Z,968.8
2018-12-22T06:19:52.597Z,968.8
2018-12-22T06:20:53.976Z,968.7
2018-12-22T06:21:55.337Z,968.8
2018-12-22T06:22:56.609Z,968.8
2018-12-22T06:24:00.612Z,968.7
2018-12-22T06:25:02.264Z,968.7
2018-12-22T06:26:03.567Z,968.6
2018-12-22T06:27:05.329Z,968.7
2018-12-22T06:28:06.607Z,968.5
2018-12-22T06:29:07.880Z,968.7
2018-12-22T06:30:10.272Z,968.6
2018-12-22T06:31:11.572Z,968.6
2018-12-22T06:32:12.873Z,968.5
2018-12-22T06:33:14.134Z,968.6
2018-12-22T06:34:15.735Z,968.5
2018-12-22T06:35:17.049Z,968.5
2018-12-22T06:36:18.337Z,968.5
2018-12-22T06:37:19.638Z,968.5
2018-12-22T06:38:21.033Z,968.5
2018-12-22T06:39:22.628Z,968.6
2018-12-22T06:40:23.979Z,968.5
2018-12-22T06:41:25.257Z,968.5
2018-12-22T06:42:26.580Z,968.4
2018-12-22T06:43:28.125Z,968.5
2018-12-22T06:44:29.437Z,968.5
2018-12-22T06:45:30.750Z,968.5
2018-12-22T06:46:34.339Z,968.5
2018-12-22T06:47:36.046Z,968.5
2018-12-22T06:48:40.297Z,968.5
2018-12-22T06:49:41.584Z,968.4
2018-12-22T06:50:42.923Z,968.3
2018-12-22T06:51:44.205Z,968.5
2018-12-22T06:52:45.486Z,968.4
2018-12-22T06:53:46.822Z,968.3
2018-12-22T06:54:48.135Z,968.4
2018-12-22T06:55:50.405Z,968.5
2018-12-22T06:56:51.686Z,968.3
2018-12-22T06:57:52.988Z,968.4
2018-12-22T06:58:54.271Z,968.4
2018-12-22T06:59:55.656Z,968.3
2018-12-22T07:00:56.969Z,968.4
2018-12-22T07:01:58.233Z,968.3
2018-12-22T07:02:59.541Z,968.3
2018-12-22T07:04:00.834Z,968.4
2018-12-22T07:05:03.339Z,968.5
2018-12-22T07:06:04.654Z,968.4
2018-12-22T07:07:06.400Z,968.6
2018-12-22T07:08:07.664Z,968.7
2018-12-22T07:09:08.942Z,968.6
2018-12-22T07:10:10.250Z,968.7
2018-12-22T07:11:11.563Z,968.6
2018-12-22T07:12:12.836Z,968.6
2018-12-22T07:13:14.760Z,968.7
2018-12-22T07:14:16.046Z,968.7
2018-12-22T07:15:17.311Z,968.6
2018-12-22T07:16:18.647Z,968.6
2018-12-22T07:17:19.918Z,968.6
2018-12-22T07:18:21.203Z,968.6
2018-12-22T07:19:22.536Z,968.5
2018-12-22T07:20:23.850Z,968.5
2018-12-22T07:21:26.845Z,968.6
2018-12-22T07:22:28.365Z,968.6
2018-12-22T07:23:32.427Z,968.7
2018-12-22T07:24:33.706Z,968.7
2018-12-22T07:25:34.955Z,968.8
2018-12-22T07:26:36.288Z,968.8
2018-12-22T07:27:37.545Z,968.8
2018-12-22T07:28:38.874Z,968.8
2018-12-22T07:29:40.265Z,968.9
2018-12-22T07:30:42.884Z,969
2018-12-22T07:31:44.193Z,969.1
2018-12-22T07:32:45.533Z,969.1
2018-12-22T07:33:46.832Z,969.1
2018-12-22T07:34:48.113Z,969.1
2018-12-22T07:35:49.416Z,969.1
2018-12-22T07:36:50.750Z,969.1
2018-12-22T07:37:52.306Z,969.2
2018-12-22T07:38:53.607Z,969.2
2018-12-22T07:39:54.952Z,969.4
2018-12-22T07:40:56.269Z,969.3
2018-12-22T07:41:57.636Z,969.3
2018-12-22T07:42:59.391Z,969.4
2018-12-22T07:44:01.619Z,969.2
2018-12-22T07:45:04.326Z,969.5
2018-12-22T07:46:07.271Z,969.4
2018-12-22T07:47:08.591Z,969.5
2018-12-22T07:48:10.133Z,969.4
2018-12-22T07:49:14.154Z,969.5
2018-12-22T07:50:16.012Z,969.5
2018-12-22T07:51:17.310Z,969.6
2018-12-22T07:52:18.620Z,969.6
2018-12-22T07:53:19.996Z,969.7
2018-12-22T07:54:21.344Z,969.7
2018-12-22T07:55:24.518Z,969.5
2018-12-22T07:56:25.969Z,969.6
2018-12-22T07:57:27.298Z,969.6
2018-12-22T07:58:30.012Z,969.7
2018-12-22T07:59:31.756Z,969.6
2018-12-22T08:00:36.426Z,969.6
2018-12-22T08:01:37.713Z,969.6
2018-12-22T08:02:39.014Z,969.6
2018-12-22T08:03:40.300Z,969.7
2018-12-22T08:04:41.587Z,969.7
2018-12-22T08:05:42.864Z,969.6
2018-12-22T08:06:44.251Z,969.6
2018-12-22T08:07:45.606Z,969.7
2018-12-22T08:08:46.887Z,969.6
2018-12-22T08:09:48.231Z,969.6
2018-12-22T08:10:49.509Z,969.8
2018-12-22T08:11:50.785Z,969.7
2018-12-22T08:12:52.465Z,969.6
2018-12-22T08:13:53.756Z,969.8
2018-12-22T08:14:57.430Z,969.7
2018-12-22T08:15:58.731Z,969.6
2018-12-22T08:16:59.992Z,969.7
2018-12-22T08:18:01.342Z,969.7
2018-12-22T08:19:02.874Z,969.7
2018-12-22T08:20:04.181Z,969.7
2018-12-22T08:21:08.296Z,969.8
2018-12-22T08:22:11.160Z,969.7
2018-12-22T08:23:12.477Z,969.8
2018-12-22T08:24:13.776Z,969.7
2018-12-22T08:25:15.063Z,969.8
2018-12-22T08:26:16.356Z,969.8
2018-12-22T08:27:17.672Z,969.7
2018-12-22T08:28:20.265Z,969.8
2018-12-22T08:29:21.769Z,969.8
2018-12-22T08:30:23.069Z,969.8
2018-12-22T08:31:24.413Z,969.9
2018-12-22T08:32:25.698Z,969.9
2018-12-22T08:33:27.069Z,969.9
2018-12-22T08:34:28.368Z,970
2018-12-22T08:35:29.641Z,970
2018-12-22T08:36:30.921Z,970.1
2018-12-22T08:37:32.291Z,970.1
2018-12-22T08:38:33.635Z,970.1
2018-12-22T08:39:35.033Z,970.2
2018-12-22T08:40:37.700Z,970.2
2018-12-22T08:41:41.937Z,970
2018-12-22T08:42:43.191Z,970.2
2018-12-22T08:43:44.548Z,970.2
2018-12-22T08:44:45.839Z,970.2
2018-12-22T08:45:50.482Z,970.1
2018-12-22T08:46:51.760Z,970.2
2018-12-22T08:47:53.036Z,970.2
2018-12-22T08:48:54.368Z,970.2
2018-12-22T08:49:55.679Z,970.4
2018-12-22T08:50:56.957Z,970.3
2018-12-22T08:52:00.601Z,970.4
2018-12-22T08:53:01.931Z,970.4
2018-12-22T08:54:03.272Z,970.4
2018-12-22T08:55:04.559Z,970.6
2018-12-22T08:56:05.844Z,971.2
2018-12-22T08:57:07.505Z,971.3
2018-12-22T08:58:08.808Z,971.2
2018-12-22T08:59:10.163Z,971.2
2018-12-22T09:00:11.488Z,971.3
2018-12-22T09:01:12.784Z,971.3
2018-12-22T09:02:14.272Z,971.3
2018-12-22T09:03:15.621Z,971.4
2018-12-22T09:04:16.947Z,971.3
2018-12-22T09:05:18.233Z,971.3
2018-12-22T09:06:19.504Z,971.3
2018-12-22T09:07:20.796Z,971.3
2018-12-22T09:08:22.314Z,971.3
2018-12-22T09:09:23.667Z,971.3
2018-12-22T09:10:24.954Z,971.4
2018-12-22T09:11:26.659Z,971.3
2018-12-22T09:12:27.990Z,971.3
2018-12-22T09:13:29.337Z,971.3
2018-12-22T09:14:30.689Z,971.4
2018-12-22T09:15:32.006Z,971.3
2018-12-22T09:16:33.309Z,971.3
2018-12-22T09:17:34.624Z,971.4
2018-12-22T09:18:35.901Z,971.4
2018-12-22T09:19:37.221Z,971.4
2018-12-22T09:20:38.522Z,971.4
2018-12-22T09:21:40.039Z,971.4
2018-12-22T09:22:41.768Z,971.4
2018-12-22T09:23:45.422Z,971.5
2018-12-22T09:24:46.844Z,971.4
2018-12-22T09:25:48.128Z,971.5
2018-12-22T09:26:49.743Z,971.5
2018-12-22T09:27:51.119Z,971.5
2018-12-22T09:28:55.321Z,971.5
2018-12-22T09:29:56.662Z,971.5
2018-12-22T09:31:01.653Z,971.5
2018-12-22T09:32:03.269Z,971.5
2018-12-22T09:33:04.575Z,971.5
2018-12-22T09:34:13.955Z,971.5
2018-12-22T09:35:15.297Z,971.5
2018-12-22T09:36:16.592Z,971.5
2018-12-22T09:37:19.975Z,971.7
2018-12-22T09:38:21.272Z,971.7
2018-12-22T09:39:22.562Z,971.8
2018-12-22T09:40:23.885Z,971.7
2018-12-22T09:41:25.401Z,971.7
2018-12-22T09:42:26.719Z,971.8
2018-12-22T09:43:30.392Z,971.7
2018-12-22T09:44:31.810Z,971.8
2018-12-22T09:45:35.069Z,971.8
2018-12-22T09:46:36.350Z,971.8
2018-12-22T09:47:39.317Z,971.8
2018-12-22T09:48:41.808Z,971.9
2018-12-22T09:49:50.381Z,971.9
2018-12-22T09:50:53.994Z,971.9
2018-12-22T09:52:02.430Z,972
2018-12-22T09:53:04.061Z,971.9
2018-12-22T09:54:05.402Z,972
2018-12-22T09:55:06.669Z,971.8
2018-12-22T09:56:10.295Z,972
2018-12-22T09:57:11.584Z,972
2018-12-22T09:58:12.879Z,972
2018-12-22T09:59:14.173Z,972
2018-12-22T10:00:15.449Z,971.9
2018-12-22T10:01:18.042Z,972
2018-12-22T10:02:19.567Z,972
2018-12-22T10:03:27.975Z,972.1
2018-12-22T10:04:29.665Z,972.1
2018-12-22T10:05:30.969Z,972.2
2018-12-22T10:06:32.296Z,972.3
2018-12-22T10:07:33.671Z,972.3
2018-12-22T10:08:34.981Z,972.4
2018-12-22T10:09:36.269Z,972.4
2018-12-22T10:10:37.780Z,972.5
2018-12-22T10:11:39.286Z,972.6
2018-12-22T10:12:40.561Z,972.6
2018-12-22T10:13:42.323Z,972.6
2018-12-22T10:14:44.334Z,972.7
2018-12-22T10:15:45.626Z,972.7
2018-12-22T10:16:46.964Z,972.8
2018-12-22T10:17:48.297Z,972.9
2018-12-22T10:18:49.631Z,973
2018-12-22T10:19:50.937Z,973
2018-12-22T10:20:52.257Z,973
2018-12-22T10:21:53.591Z,973.1
2018-12-22T10:22:56.079Z,973.2
2018-12-22T10:23:57.392Z,973.1
2018-12-22T10:24:58.661Z,973.2
2018-12-22T10:25:59.957Z,973.1
2018-12-22T10:27:01.403Z,973.1
2018-12-22T10:28:02.677Z,973.2
2018-12-22T10:29:06.673Z,973.3
2018-12-22T10:30:09.036Z,973.3
2018-12-22T10:31:18.533Z,973.3
2018-12-22T10:32:19.870Z,973.4
2018-12-22T10:33:24.196Z,973.4
2018-12-22T10:34:25.501Z,973.5
2018-12-22T10:35:26.811Z,973.5
2018-12-22T10:36:28.155Z,973.4
2018-12-22T10:37:29.858Z,973.5
2018-12-22T10:38:31.156Z,973.6
2018-12-22T10:39:32.470Z,973.6
2018-12-22T10:40:33.770Z,973.6
2018-12-22T10:41:42.486Z,973.6
2018-12-22T10:42:43.818Z,973.7
2018-12-22T10:43:45.134Z,973.7
2018-12-22T10:44:46.443Z,973.6
2018-12-22T10:45:50.230Z,973.7
2018-12-22T10:46:51.554Z,973.7
2018-12-22T10:47:53.228Z,973.7
2018-12-22T10:48:54.562Z,973.7
2018-12-22T10:49:55.873Z,973.8
2018-12-22T10:51:00.728Z,973.8
2018-12-22T10:52:02.320Z,973.7
2018-12-22T10:53:03.688Z,973.8
2018-12-22T10:54:04.997Z,973.8
2018-12-22T10:55:06.342Z,973.8
2018-12-22T10:56:07.646Z,973.8
2018-12-22T10:57:09.248Z,973.8
2018-12-22T10:58:11.984Z,973.7
2018-12-22T10:59:13.299Z,973.9
2018-12-22T11:00:14.882Z,973.9
2018-12-22T11:01:16.620Z,973.9
2018-12-22T11:02:18.243Z,973.9
2018-12-22T11:03:19.596Z,973.9
2018-12-22T11:04:20.909Z,973.9
2018-12-22T11:05:22.301Z,974
2018-12-22T11:06:23.616Z,973.9
2018-12-22T11:07:25.154Z,973.9
2018-12-22T11:08:26.772Z,973.9
2018-12-22T11:09:28.078Z,973.9
2018-12-22T11:10:34.171Z,974
2018-12-22T11:11:35.499Z,973.9
2018-12-22T11:12:36.820Z,974
2018-12-22T11:13:39.135Z,974
2018-12-22T11:14:42.246Z,974
2018-12-22T11:15:44.965Z,974.1
2018-12-22T11:16:46.277Z,974
2018-12-22T11:17:47.592Z,974
2018-12-22T11:18:49.812Z,974.1
2018-12-22T11:19:51.132Z,974.1
2018-12-22T11:20:52.460Z,974
2018-12-22T11:21:53.787Z,974.1
2018-12-22T11:22:55.087Z,974.2
2018-12-22T11:23:56.417Z,974.2
2018-12-22T11:24:58.764Z,974.2
2018-12-22T11:26:00.066Z,974.2
2018-12-22T11:27:01.430Z,974.2
2018-12-22T11:28:05.146Z,974.3
2018-12-22T11:29:06.655Z,974.3
2018-12-22T11:30:07.937Z,974.2
2018-12-22T11:31:09.637Z,974.2
2018-12-22T11:32:11.016Z,974.3
2018-12-22T11:33:12.320Z,974.3
2018-12-22T11:34:16.298Z,974.4
2018-12-22T11:35:17.581Z,974.4
2018-12-22T11:36:18.974Z,974.4
2018-12-22T11:37:20.304Z,974.5
2018-12-22T11:38:21.640Z,974.4
2018-12-22T11:39:23.229Z,974.5
2018-12-22T11:40:24.566Z,974.4
2018-12-22T11:41:25.876Z,974.4
2018-12-22T11:42:27.204Z,974.3
2018-12-22T11:43:28.512Z,974.5
2018-12-22T11:44:29.940Z,974.5
2018-12-22T11:45:31.241Z,974.5
2018-12-22T11:46:32.573Z,974.5
2018-12-22T11:47:33.898Z,974.6
2018-12-22T11:48:35.205Z,974.5
2018-12-22T11:49:36.623Z,974.5
2018-12-22T11:50:37.913Z,974.6
2018-12-22T11:51:39.206Z,974.5
2018-12-22T11:52:44.832Z,974.6
2018-12-22T11:53:46.260Z,974.6
2018-12-22T11:54:47.642Z,974.7
2018-12-22T11:55:48.936Z,974.7
2018-12-22T11:56:56.294Z,974.7
2018-12-22T11:57:58.040Z,974.8
2018-12-22T11:58:59.322Z,974.8
2018-12-22T12:00:03.007Z,974.8
2018-12-22T12:01:04.605Z,974.8
2018-12-22T12:02:10.558Z,974.8
2018-12-22T12:03:11.972Z,974.8
2018-12-22T12:04:13.283Z,974.8
2018-12-22T12:05:14.878Z,974.9
2018-12-22T12:06:22.284Z,974.8
2018-12-22T12:08:33.497Z,974.9
2018-12-22T12:09:34.865Z,974.9
2018-12-22T12:10:38.323Z,974.9
2018-12-22T12:11:39.606Z,975
2018-12-22T12:12:43.106Z,975
2018-12-22T12:13:44.433Z,975.1
2018-12-22T12:14:45.716Z,975
2018-12-22T12:15:47.318Z,975
2018-12-22T12:16:48.886Z,975.1
2018-12-22T12:17:52.382Z,975.1
2018-12-22T12:18:53.756Z,975.1
2018-12-22T12:20:07.353Z,975.1
2018-12-22T12:21:09.709Z,975.2
2018-12-22T12:22:11.716Z,975.2
2018-12-22T12:23:30.697Z,975.2
2018-12-22T12:24:32.040Z,975.2
2018-12-22T12:25:36.078Z,975.2
2018-12-22T12:26:38.585Z,975.1
2018-12-22T12:27:39.903Z,975.1
2018-12-22T12:28:41.492Z,975.2
2018-12-22T12:29:42.789Z,975.2
2018-12-22T12:30:44.113Z,975.2
2018-12-22T12:31:53.057Z,975.3
2018-12-22T12:32:54.657Z,975.3
2018-12-22T12:33:55.997Z,975.3
2018-12-22T12:34:57.323Z,975.3
2018-12-22T12:35:59.985Z,975.4
2018-12-22T12:37:02.721Z,975.3
2018-12-22T12:38:04.026Z,975.4
2018-12-22T12:39:05.332Z,975.4
2018-12-22T12:40:10.087Z,975.4
2018-12-22T12:41:11.404Z,975.5
2018-12-22T12:42:15.570Z,975.5
2018-12-22T12:43:16.942Z,975.4
2018-12-22T12:44:19.528Z,975.5
2018-12-22T12:45:20.800Z,975.4
2018-12-22T12:46:22.253Z,975.3
2018-12-22T12:47:23.604Z,975.4
2018-12-22T12:48:24.927Z,975.4
2018-12-22T12:49:26.297Z,975.5
2018-12-22T12:50:27.617Z,975.5
2018-12-22T12:51:28.954Z,975.5
2018-12-22T12:52:30.444Z,975.5
2018-12-22T12:53:31.776Z,975.5
2018-12-22T12:54:33.071Z,975.5
2018-12-22T12:55:34.381Z,975.5
2018-12-22T12:56:35.668Z,975.5
2018-12-22T12:57:39.645Z,975.5
2018-12-22T12:58:40.982Z,975.6
2018-12-22T12:59:42.265Z,975.5
2018-12-22T13:00:43.585Z,975.6
2018-12-22T13:01:44.893Z,975.5
2018-12-22T13:02:46.266Z,975.6
2018-12-22T13:03:47.587Z,975.5
2018-12-22T13:04:48.984Z,975.6
2018-12-22T13:05:50.288Z,975.6
2018-12-22T13:06:51.627Z,975.4
2018-12-22T13:07:53.002Z,975.6
2018-12-22T13:08:54.581Z,975.6
2018-12-22T13:09:55.899Z,975.6
2018-12-22T13:10:57.250Z,975.6
2018-12-22T13:11:58.589Z,975.7
2018-12-22T13:13:00.161Z,975.6
2018-12-22T13:14:01.462Z,975.6
2018-12-22T13:15:02.791Z,975.6
2018-12-22T13:16:04.095Z,975.6
2018-12-22T13:17:05.708Z,975.5
2018-12-22T13:18:07.435Z,975.6
2018-12-22T13:19:08.768Z,975.7
2018-12-22T13:20:12.965Z,975.7
2018-12-22T13:21:14.326Z,975.7
2018-12-22T13:22:18.305Z,975.6
2018-12-22T13:23:19.934Z,975.5